Yonago, Japan

5:04 PM JST on August 05, 2015 (GMT +0900)
Miho Aero | | Change Station
CLOSE
Current Station
Airport
Location: Miho AB,
Elevation: 20 ft
Nearby Weather Stations

Elev 20 ft 35.49 °N, 133.24 °E | Updated 1 hour ago

Mostly Cloudy
Mostly Cloudy
86 °F
Feels Like 92 °F
N
5
Wind Variable Wind from South

Today
High -- | Low -- °F
--% Chance of Precip.
Yesterday
High -- | Low -- °F
Precip. -- in
5:17 AM 7:07 PM
Waning Gibbous, 69% visible
Pressure 29.80 in
Visibility 6.2 miles
Clouds Few 3000 ft
Mostly Cloudy 30000 ft
Heat Index 92 °F
Dew Point 72 °F
Humidity 62%
Rainfall 0.00 in
Snow Depth Not available.
UV 3 out of 12
Pollen Not available.
Air Quality Not available.
Flu Activity Not available.
METAR RJOH 050700Z 18004KT 140V230 9999 FEW030CB BKN300 30/22 Q1009

More Conditions Fewer Conditions

Pressure 29.80 in
Visibility 6.2 miles
Clouds Few 3000 ft
Mostly Cloudy 30000 ft
Heat Index 92 °F
Dew Point 72 °F
Humidity 62%
Rainfall 0.00 in
Snow Depth Not available.
UV 3 out of 12
Pollen Not available.
Air Quality Not available.
Flu Activity Not available.
METAR RJOH 050700Z 18004KT 140V230 9999 FEW030CB BKN300 30/22 Q1009

More Conditions Fewer Conditions

10-Day Weather Forecast

×

Almanac

Astronomy

Aug. 05, 2015 Rise Set
Actual Time
Civil Twilight
Nautical Twilight
Astronomical Twilight
Moon
Length of Visible Light
Length of Day
Tomorrow will be .
, % of the Moon is Illuminated

Today's Extremes

Country Highs Country Lows

Community

WunderPhotos

Upload Photos

1,844,105 photos uploaded!

WunderBlogs® & News

Nearby

Air Quality

  Air Quality AQ Index Pollutant
Not available.

Snow Depth

Station Depth Elevation

Earthquake Activity

City Distance Mag. Time & Date
Minimum magnitude displayed is 2.5.

Coastal Water Temperatures

Place Temperature

Stations

Nearby Weather Stations

Station Location Temp. Windchill Dew Point Humidity Wind Precip. Elev Updated Type